Time;durP1;ratioP1;P1;durP2;ratioP2;P2;SDS_P1;SDS_P2;PMS_P1;PMS_P2;Temp;Humidity;BMP_temperature;BMP_pressure;BME280_temperature;BME280_humidity;BME280_pressure;Samples;Min_cycle;Max_cycle;Signal;HPM_P1;HPM_P2
2023/05/20 00:00:03;;;;;;;23.20;12.30;;;;;;;-140.66;100.00;55571.53;5074046;28;20418;-77
2023/05/20 00:02:49;;;;;;;17.67;12.25;;;;;;;-140.66;100.00;55571.53;5076342;28;20024;-77
2023/05/20 00:05:35;;;;;;;20.20;12.13;;;;;;;-140.66;100.00;55571.53;5074165;28;20020;-77
2023/05/20 00:08:20;;;;;;;19.55;12.25;;;;;;;-140.66;100.00;55571.53;5075784;28;20037;-77
2023/05/20 00:11:06;;;;;;;15.52;12.23;;;;;;;-140.66;100.00;55571.53;5075174;28;20531;-76
2023/05/20 00:13:52;;;;;;;15.63;12.52;;;;;;;-140.66;100.00;55571.53;5076107;28;20104;-77
2023/05/20 00:16:38;;;;;;;15.88;12.43;;;;;;;-140.66;100.00;55571.53;5063215;28;20060;-76
2023/05/20 00:19:23;;;;;;;18.75;12.02;;;;;;;-140.66;100.00;55571.53;5074107;28;20030;-77
2023/05/20 00:22:09;;;;;;;17.33;12.75;;;;;;;-140.66;100.00;55571.53;5061131;28;20044;-77
2023/05/20 00:24:55;;;;;;;18.63;13.18;;;;;;;-140.66;100.00;55571.53;5075173;28;20028;-77
2023/05/20 00:27:41;;;;;;;20.17;12.35;;;;;;;-140.66;100.00;55571.53;5081200;28;20044;-77
2023/05/20 00:30:27;;;;;;;16.23;12.73;;;;;;;-140.66;100.00;55571.53;5094438;28;20365;-78
2023/05/20 00:33:13;;;;;;;18.98;13.07;;;;;;;-140.66;100.00;55571.53;5094301;28;20031;-77
2023/05/20 00:35:59;;;;;;;18.40;12.38;;;;;;;-140.66;100.00;55571.53;5093821;28;20020;-77
2023/05/20 00:38:44;;;;;;;21.65;13.45;;;;;;;-140.66;100.00;55571.53;5095060;28;20090;-77
2023/05/20 00:41:31;;;;;;;21.45;13.82;;;;;;;-140.66;100.00;55571.53;5082043;28;20085;-77
2023/05/20 00:44:17;;;;;;;21.02;13.88;;;;;;;-140.66;100.00;55571.53;5098391;28;20093;-77
2023/05/20 00:47:03;;;;;;;19.80;13.20;;;;;;;-140.66;100.00;55571.53;5098484;28;20115;-77
2023/05/20 00:49:50;;;;;;;20.25;13.52;;;;;;;-140.66;100.00;55571.53;5097690;28;20440;-77
2023/05/20 00:52:36;;;;;;;20.10;12.98;;;;;;;-140.66;100.00;55571.53;5083455;28;20043;-77
2023/05/20 00:55:22;;;;;;;18.73;13.20;;;;;;;-140.66;100.00;55571.53;5098296;28;20028;-77
2023/05/20 00:58:08;;;;;;;19.45;13.98;;;;;;;-140.66;100.00;55571.53;5083624;28;20020;-76
2023/05/20 01:00:54;;;;;;;20.38;13.20;;;;;;;-140.66;100.00;55571.53;5098548;28;20090;-77
2023/05/20 01:03:40;;;;;;;16.83;13.15;;;;;;;-140.66;100.00;55571.53;5098478;28;20471;-77
2023/05/20 01:06:27;;;;;;;18.90;13.40;;;;;;;-140.66;100.00;55571.53;5101834;28;20024;-76
2023/05/20 01:09:12;;;;;;;20.85;13.82;;;;;;;-140.66;100.00;55571.53;5109925;28;20047;-76
2023/05/20 01:12:05;;;;;;;21.40;13.30;;;;;;;-140.66;100.00;55571.53;5100165;28;20020;-76
2023/05/20 01:15:11;;;;;;;19.27;12.98;;;;;;;-140.66;100.00;55571.53;5098115;28;20019;-76
2023/05/20 01:18:00;;;;;;;19.00;12.93;;;;;;;-140.66;100.00;55571.53;5098894;28;20101;-77
2023/05/20 01:20:49;;;;;;;18.35;13.23;;;;;;;-140.66;100.00;55571.53;5097624;28;20044;-77
2023/05/20 01:23:39;;;;;;;21.88;12.98;;;;;;;-140.66;100.00;55571.53;5098081;28;20028;-77
2023/05/20 01:26:25;;;;;;;17.23;12.70;;;;;;;-140.66;100.00;55571.53;5085976;28;20035;-79
2023/05/20 01:29:12;;;;;;;18.75;12.98;;;;;;;-140.66;100.00;55571.53;5110592;28;20052;-76
2023/05/20 01:32:00;;;;;;;20.85;14.10;;;;;;;-140.66;100.00;55571.53;5101697;28;20024;-77
2023/05/20 01:34:48;;;;;;;18.50;13.02;;;;;;;-140.66;100.00;55571.53;5083014;28;20056;-76
2023/05/20 01:37:39;;;;;;;23.35;13.68;;;;;;;-140.66;100.00;55571.53;5097412;28;20334;-76
2023/05/20 01:40:26;;;;;;;18.92;12.98;;;;;;;-140.66;100.00;55571.53;5082522;28;20020;-77
2023/05/20 01:43:12;;;;;;;21.55;13.18;;;;;;;-140.66;100.00;55571.53;5096739;28;20110;-77
2023/05/20 01:46:01;;;;;;;18.65;13.57;;;;;;;-140.66;100.00;55571.53;5097112;28;20042;-76
2023/05/20 01:48:47;;;;;;;19.60;13.13;;;;;;;-140.66;100.00;55571.53;5081798;28;20074;-77
2023/05/20 01:51:34;;;;;;;23.58;13.18;;;;;;;-140.66;100.00;55571.53;5096189;28;20020;-78
2023/05/20 01:54:19;;;;;;;21.08;13.48;;;;;;;-140.66;100.00;55571.53;5083219;28;20024;-77
2023/05/20 01:57:05;;;;;;;18.88;13.45;;;;;;;-140.66;100.00;55571.53;5095866;28;20113;-77
2023/05/20 01:59:51;;;;;;;19.40;12.63;;;;;;;-140.66;100.00;55571.53;5082690;28;20058;-78
2023/05/20 02:02:36;;;;;;;19.30;12.48;;;;;;;-140.66;100.00;55571.53;5082742;28;20032;-77
2023/05/20 02:05:22;;;;;;;20.15;13.85;;;;;;;-140.66;100.00;55571.53;5096637;28;20094;-77
2023/05/20 02:08:08;;;;;;;19.33;13.70;;;;;;;-140.66;100.00;55571.53;5096474;28;20020;-77
2023/05/20 02:10:54;;;;;;;20.98;13.25;;;;;;;-140.66;100.00;55571.53;5096703;28;20028;-77
2023/05/20 02:13:40;;;;;;;19.08;13.05;;;;;;;-140.66;100.00;55571.53;5096046;28;20129;-77
2023/05/20 02:16:25;;;;;;;19.90;13.57;;;;;;;-140.66;100.00;55571.53;5096547;28;20028;-78
2023/05/20 02:19:11;;;;;;;21.70;13.90;;;;;;;-140.66;100.00;55571.53;5082916;28;20043;-78
2023/05/20 02:21:57;;;;;;;19.70;13.80;;;;;;;-140.66;100.00;55571.53;5095767;28;20119;-78
2023/05/20 02:24:43;;;;;;;17.27;13.07;;;;;;;-140.66;100.00;55571.53;5082752;28;20024;-77
2023/05/20 02:27:29;;;;;;;21.50;13.25;;;;;;;-140.66;100.00;55571.53;5081733;28;20050;-77
2023/05/20 02:30:16;;;;;;;18.98;13.07;;;;;;;-140.66;100.00;55571.53;5081529;28;20039;-77
2023/05/20 02:33:01;;;;;;;20.73;14.10;;;;;;;-140.66;100.00;55571.53;5096238;28;20364;-77
2023/05/20 02:35:47;;;;;;;18.58;12.68;;;;;;;-140.66;100.00;55571.53;5096148;28;20372;-77
2023/05/20 02:38:33;;;;;;;17.30;13.23;;;;;;;-140.66;100.00;55571.53;5081451;28;20056;-77
2023/05/20 02:41:20;;;;;;;18.08;13.43;;;;;;;-140.66;100.00;55571.53;5095393;28;20052;-77
2023/05/20 02:44:06;;;;;;;20.80;13.48;;;;;;;-140.66;100.00;55571.53;5095215;28;20028;-77
2023/05/20 02:46:51;;;;;;;19.98;13.23;;;;;;;-140.66;100.00;55571.53;5096291;28;20345;-77
2023/05/20 02:49:37;;;;;;;22.60;14.48;;;;;;;-140.66;100.00;55571.53;5096284;28;20070;-79
2023/05/20 02:52:23;;;;;;;18.15;13.13;;;;;;;-140.66;100.00;55571.53;5096031;28;20107;-78
2023/05/20 02:55:09;;;;;;;18.02;13.90;;;;;;;-140.66;100.00;55571.53;5095023;28;20042;-77
2023/05/20 02:57:55;;;;;;;16.27;12.90;;;;;;;-140.66;100.00;55571.53;5095350;28;20505;-77
2023/05/20 03:00:40;;;;;;;24.30;14.27;;;;;;;-140.66;100.00;55571.53;5081579;28;20419;-76
2023/05/20 03:03:26;;;;;;;19.25;14.05;;;;;;;-140.66;100.00;55571.53;5095535;28;20472;-77
2023/05/20 03:06:12;;;;;;;22.08;14.32;;;;;;;-140.66;100.00;55571.53;5080477;28;20040;-77
2023/05/20 03:08:58;;;;;;;22.48;14.27;;;;;;;-140.66;100.00;55571.53;5096305;28;20074;-77
2023/05/20 03:11:46;;;;;;;18.55;13.43;;;;;;;-140.66;100.00;55571.53;5081033;28;20061;-77
2023/05/20 03:14:32;;;;;;;19.48;14.00;;;;;;;-140.66;100.00;55571.53;5094545;28;20032;-78
2023/05/20 03:17:17;;;;;;;21.70;14.18;;;;;;;-140.66;100.00;55571.53;5081558;28;20103;-78
2023/05/20 03:20:07;;;;;;;23.75;14.85;;;;;;;-140.66;100.00;55571.53;5094883;28;20035;-77
2023/05/20 03:22:52;;;;;;;20.70;14.20;;;;;;;-140.66;100.00;55571.53;5082054;28;20028;-77
2023/05/20 03:25:39;;;;;;;22.38;14.73;;;;;;;-140.66;100.00;55571.53;5095452;28;20106;-78
2023/05/20 03:28:25;;;;;;;23.35;13.73;;;;;;;-140.66;100.00;55571.53;5094957;28;20079;-78
2023/05/20 03:31:11;;;;;;;20.65;15.38;;;;;;;-140.66;100.00;55571.53;5094697;28;20040;-77
2023/05/20 03:33:56;;;;;;;22.23;14.82;;;;;;;-140.66;100.00;55571.53;5094275;28;20027;-76
2023/05/20 03:36:42;;;;;;;21.30;15.15;;;;;;;-140.66;100.00;55571.53;5080604;28;20028;-77
2023/05/20 03:39:28;;;;;;;21.20;15.52;;;;;;;-140.66;100.00;55571.53;5094927;28;20094;-76
2023/05/20 03:42:14;;;;;;;22.52;15.20;;;;;;;-140.66;100.00;55571.53;5093647;28;20099;-76
2023/05/20 03:45:00;;;;;;;23.73;15.45;;;;;;;-140.66;100.00;55571.53;5093960;28;20031;-77
2023/05/20 03:47:45;;;;;;;22.38;16.25;;;;;;;-140.66;100.00;55571.53;5080277;28;20035;-78
2023/05/20 03:50:31;;;;;;;22.77;15.65;;;;;;;-140.66;100.00;55571.53;5095019;28;20036;-77
2023/05/20 03:53:19;;;;;;;21.33;15.27;;;;;;;-140.66;100.00;55571.53;5080350;28;20089;-77
2023/05/20 03:56:04;;;;;;;22.60;15.77;;;;;;;-140.66;100.00;55571.53;5079735;28;20352;-77
2023/05/20 03:58:50;;;;;;;23.38;15.00;;;;;;;-140.66;100.00;55571.53;5079474;28;20097;-79
2023/05/20 04:01:36;;;;;;;22.80;15.40;;;;;;;-140.66;100.00;55571.53;5073361;28;20028;-78
2023/05/20 04:04:22;;;;;;;23.50;14.68;;;;;;;-140.66;100.00;55571.53;5105163;28;20027;-77
2023/05/20 04:07:10;;;;;;;20.42;13.82;;;;;;;-140.66;100.00;55571.53;5107129;28;20356;-78
2023/05/20 04:09:57;;;;;;;18.88;15.20;;;;;;;-140.66;100.00;55571.53;5094305;28;20024;-77
2023/05/20 04:12:43;;;;;;;19.42;14.25;;;;;;;-140.66;100.00;55571.53;5080052;28;20121;-75
2023/05/20 04:15:29;;;;;;;18.55;14.20;;;;;;;-140.66;100.00;55571.53;5094446;28;20371;-75
2023/05/20 04:18:15;;;;;;;21.55;14.95;;;;;;;-140.66;100.00;55571.53;5081007;28;20399;-75
2023/05/20 04:21:01;;;;;;;20.75;14.60;;;;;;;-140.66;100.00;55571.53;5095158;28;20093;-75
2023/05/20 04:23:46;;;;;;;18.05;14.07;;;;;;;-140.66;100.00;55571.53;5095334;28;20390;-75
2023/05/20 04:26:32;;;;;;;18.35;14.18;;;;;;;-140.66;100.00;55571.53;5098169;28;20047;-76
2023/05/20 04:29:18;;;;;;;19.30;14.65;;;;;;;-140.66;100.00;55571.53;5105336;28;20541;-75
2023/05/20 04:32:09;;;;;;;17.85;13.38;;;;;;;-140.66;100.00;55571.53;5094650;28;20375;-75
2023/05/20 04:34:56;;;;;;;21.17;15.02;;;;;;;-140.66;100.00;55571.53;5080050;28;20032;-75
2023/05/20 04:37:43;;;;;;;24.10;13.98;;;;;;;-140.66;100.00;55571.53;5080869;28;20016;-76
2023/05/20 04:40:29;;;;;;;20.73;15.05;;;;;;;-140.66;100.00;55571.53;5078463;28;20024;-76
2023/05/20 04:43:16;;;;;;;23.33;14.60;;;;;;;-140.66;100.00;55571.53;5093908;28;20034;-75
2023/05/20 04:46:04;;;;;;;18.55;14.23;;;;;;;-140.66;100.00;55571.53;5095280;28;20039;-76
2023/05/20 04:48:50;;;;;;;22.75;14.90;;;;;;;-140.66;100.00;55571.53;5094646;28;20035;-76
2023/05/20 04:51:36;;;;;;;22.55;14.45;;;;;;;-140.66;100.00;55571.53;5093428;28;20043;-75
2023/05/20 04:54:22;;;;;;;20.45;14.20;;;;;;;-140.66;100.00;55571.53;5094154;28;20028;-76
2023/05/20 04:57:07;;;;;;;22.40;14.07;;;;;;;-140.66;100.00;55571.53;5080481;28;20028;-75
2023/05/20 04:59:57;;;;;;;21.27;14.10;;;;;;;-140.66;100.00;55571.53;5094076;28;20043;-75
2023/05/20 05:02:43;;;;;;;22.70;14.38;;;;;;;-140.66;100.00;55571.53;5079390;28;20479;-75
2023/05/20 05:05:28;;;;;;;21.05;14.52;;;;;;;-140.66;100.00;55571.53;5092736;28;20028;-74
2023/05/20 05:08:15;;;;;;;24.13;14.38;;;;;;;-140.66;100.00;55571.53;5093094;28;20051;-75
2023/05/20 05:11:03;;;;;;;19.95;13.88;;;;;;;-140.66;100.00;55571.53;5079671;28;20028;-75
2023/05/20 05:13:49;;;;;;;18.65;13.52;;;;;;;-140.66;100.00;55571.53;5079146;28;20420;-75
2023/05/20 05:16:35;;;;;;;21.27;13.63;;;;;;;-140.66;100.00;55571.53;5093969;28;20028;-76
2023/05/20 05:19:20;;;;;;;21.63;14.52;;;;;;;-140.66;100.00;55571.53;5093577;28;20031;-75
2023/05/20 05:22:06;;;;;;;19.00;13.32;;;;;;;-140.66;100.00;55571.53;5080026;28;20039;-75
2023/05/20 05:24:54;;;;;;;21.20;12.95;;;;;;;-140.66;100.00;55571.53;5094024;28;20024;-75
2023/05/20 05:27:40;;;;;;;20.35;13.95;;;;;;;-140.66;100.00;55571.53;5094480;28;20380;-76
2023/05/20 05:30:26;;;;;;;20.15;13.65;;;;;;;-140.66;100.00;55571.53;5083317;28;20032;-75
2023/05/20 05:33:13;;;;;;;18.63;13.43;;;;;;;-140.66;100.00;55571.53;5097391;28;20028;-75
2023/05/20 05:36:00;;;;;;;20.30;13.63;;;;;;;-140.66;100.00;55571.53;5096608;28;20089;-75
2023/05/20 05:38:46;;;;;;;20.80;13.68;;;;;;;-140.66;100.00;55571.53;5096605;28;20024;-76
2023/05/20 05:41:32;;;;;;;22.42;13.32;;;;;;;-140.66;100.00;55571.53;5098079;28;20032;-76
2023/05/20 05:44:18;;;;;;;23.63;14.30;;;;;;;-140.66;100.00;55571.53;5096405;28;20032;-75
2023/05/20 05:47:05;;;;;;;22.27;13.32;;;;;;;-140.66;100.00;55571.53;5096951;28;20436;-76
2023/05/20 05:49:52;;;;;;;17.27;12.77;;;;;;;-140.66;100.00;55571.53;5096783;28;20032;-76
2023/05/20 05:52:37;;;;;;;19.67;12.82;;;;;;;-140.66;100.00;55571.53;5095628;28;20020;-75
2023/05/20 05:55:23;;;;;;;18.77;12.52;;;;;;;-140.66;100.00;55571.53;5097059;28;20098;-75
2023/05/20 05:58:09;;;;;;;19.08;13.25;;;;;;;-140.66;100.00;55571.53;5096732;28;20020;-74
2023/05/20 06:00:55;;;;;;;19.00;13.15;;;;;;;-140.66;100.00;55571.53;5097254;28;20063;-75
2023/05/20 06:03:40;;;;;;;17.50;13.18;;;;;;;-140.66;100.00;55571.53;5082898;28;20019;-75
2023/05/20 06:06:26;;;;;;;23.25;14.43;;;;;;;-140.66;100.00;55571.53;5097204;28;20036;-75
2023/05/20 06:09:12;;;;;;;21.02;13.73;;;;;;;-140.66;100.00;55571.53;5095501;28;20020;-75
2023/05/20 06:11:58;;;;;;;22.02;13.80;;;;;;;-140.66;100.00;55571.53;5096851;28;20035;-75
2023/05/20 06:14:43;;;;;;;18.33;13.52;;;;;;;-140.66;100.00;55571.53;5082012;28;20035;-76
2023/05/20 06:17:29;;;;;;;17.48;13.05;;;;;;;-140.66;100.00;55571.53;5095611;28;20027;-76
2023/05/20 06:20:15;;;;;;;24.98;13.95;;;;;;;-140.66;100.00;55571.53;5082497;28;20341;-76
2023/05/20 06:23:01;;;;;;;19.17;13.32;;;;;;;-140.66;100.00;55571.53;5096046;28;20100;-75
2023/05/20 06:25:47;;;;;;;19.15;12.85;;;;;;;-140.66;100.00;55571.53;5096481;28;20024;-75
2023/05/20 06:28:33;;;;;;;16.98;12.85;;;;;;;-140.66;100.00;55571.53;5081974;28;20106;-75
2023/05/20 06:31:19;;;;;;;16.10;12.68;;;;;;;-140.66;100.00;55571.53;5081949;28;20105;-76
2023/05/20 06:34:05;;;;;;;21.48;14.35;;;;;;;-140.66;100.00;55571.53;5095436;28;20368;-76
2023/05/20 06:36:50;;;;;;;18.98;13.07;;;;;;;-140.66;100.00;55571.53;5095923;28;20032;-76
2023/05/20 06:39:36;;;;;;;20.42;13.27;;;;;;;-140.66;100.00;55571.53;5096350;28;20111;-76
2023/05/20 06:42:22;;;;;;;21.55;13.60;;;;;;;-140.66;100.00;55571.53;5095450;28;20031;-75
2023/05/20 06:45:09;;;;;;;18.25;12.05;;;;;;;-140.66;100.00;55571.53;5095838;28;20106;-75
2023/05/20 06:47:55;;;;;;;16.25;12.23;;;;;;;-140.66;100.00;55571.53;5096262;28;20024;-76
2023/05/20 06:50:41;;;;;;;14.73;11.32;;;;;;;-140.66;100.00;55571.53;5096655;28;20040;-75
2023/05/20 06:53:26;;;;;;;16.67;11.27;;;;;;;-140.66;100.00;55571.53;5080604;28;20039;-74
2023/05/20 06:56:12;;;;;;;21.42;11.63;;;;;;;-140.66;100.00;55571.53;5082156;28;20028;-74
2023/05/20 06:58:58;;;;;;;17.75;11.10;;;;;;;-140.66;100.00;55571.53;5081276;28;20024;-75
2023/05/20 07:01:43;;;;;;;16.90;11.50;;;;;;;-140.66;100.00;55571.53;5096367;28;20035;-76
2023/05/20 07:04:29;;;;;;;20.33;11.02;;;;;;;-140.66;100.00;55571.53;5095573;28;20024;-76
2023/05/20 07:07:15;;;;;;;16.33;10.95;;;;;;;-140.66;100.00;55571.53;5095276;28;20028;-76
2023/05/20 07:10:04;;;;;;;20.25;13.30;;;;;;;-140.66;100.00;55571.53;5096015;28;20470;-76
2023/05/20 07:12:50;;;;;;;17.30;12.05;;;;;;;-140.66;100.00;55571.53;5095689;28;20027;-76
2023/05/20 07:15:35;;;;;;;15.20;11.07;;;;;;;-140.66;100.00;55571.53;5094899;28;20028;-76
2023/05/20 07:18:22;;;;;;;16.60;12.02;;;;;;;-140.66;100.00;55571.53;5095215;28;20020;-75
2023/05/20 07:21:07;;;;;;;14.40;11.63;;;;;;;-140.66;100.00;55571.53;5082461;28;20031;-75
2023/05/20 07:23:53;;;;;;;15.13;11.38;;;;;;;-140.66;100.00;55571.53;5080301;28;20024;-75
2023/05/20 07:26:39;;;;;;;17.15;11.98;;;;;;;-140.66;100.00;55571.53;5080249;28;20047;-74
2023/05/20 07:29:25;;;;;;;16.70;12.80;;;;;;;-140.66;100.00;55571.53;5074983;28;20436;-75
2023/05/20 07:32:11;;;;;;;17.42;12.13;;;;;;;-140.66;100.00;55571.53;5095209;28;20032;-75
2023/05/20 07:34:57;;;;;;;22.52;14.30;;;;;;;-140.66;100.00;55571.53;5096089;28;20144;-76
2023/05/20 07:37:43;;;;;;;23.35;12.07;;;;;;;-140.66;100.00;55571.53;5096006;28;20035;-75
2023/05/20 07:40:28;;;;;;;18.65;11.73;;;;;;;-140.66;100.00;55571.53;5097339;28;20028;-74
2023/05/20 07:43:15;;;;;;;17.33;12.05;;;;;;;-140.66;100.00;55571.53;5081217;28;20039;-76
2023/05/20 07:46:01;;;;;;;17.92;11.80;;;;;;;-140.66;100.00;55571.53;5079772;28;20070;-75
2023/05/20 07:48:47;;;;;;;17.92;12.00;;;;;;;-140.66;100.00;55571.53;5094555;28;20070;-75
2023/05/20 07:51:32;;;;;;;20.25;12.52;;;;;;;-140.66;100.00;55571.53;5094801;28;20046;-76
2023/05/20 07:54:18;;;;;;;19.88;12.70;;;;;;;-140.66;100.00;55571.53;5094984;28;20039;-75
2023/05/20 07:57:04;;;;;;;16.70;11.75;;;;;;;-140.66;100.00;55571.53;5094715;28;20027;-75
2023/05/20 07:59:50;;;;;;;17.83;12.10;;;;;;;-140.66;100.00;55571.53;5094228;28;20032;-75
2023/05/20 08:02:36;;;;;;;16.88;11.80;;;;;;;-140.66;100.00;55571.53;5093755;28;20047;-75
2023/05/20 08:05:21;;;;;;;16.85;11.85;;;;;;;-140.66;100.00;55571.53;5093345;28;20023;-75
2023/05/20 08:08:09;;;;;;;16.65;11.80;;;;;;;-140.66;100.00;55571.53;5093938;28;20028;-75
2023/05/20 08:10:55;;;;;;;19.60;13.05;;;;;;;-140.66;100.00;55571.53;5094254;28;20413;-74
2023/05/20 08:13:41;;;;;;;21.45;13.27;;;;;;;-140.66;100.00;55571.53;5079737;28;20359;-74
2023/05/20 08:16:27;;;;;;;18.08;12.68;;;;;;;-140.66;100.00;55571.53;5094793;28;20062;-75
2023/05/20 08:19:12;;;;;;;24.65;13.77;;;;;;;-140.66;100.00;55571.53;5095023;28;20012;-75
2023/05/20 08:21:58;;;;;;;20.70;12.93;;;;;;;-140.66;100.00;55571.53;5094941;28;20107;-76
2023/05/20 08:24:44;;;;;;;16.05;12.43;;;;;;;-140.66;100.00;55571.53;5094178;28;20028;-76
2023/05/20 08:27:29;;;;;;;17.83;11.95;;;;;;;-140.66;100.00;55571.53;5094330;28;20040;-75
2023/05/20 08:30:15;;;;;;;17.23;12.20;;;;;;;-140.66;100.00;55571.53;5079694;28;20060;-75
2023/05/20 08:33:01;;;;;;;18.00;13.63;;;;;;;-140.66;100.00;55571.53;5093362;28;20038;-75
2023/05/20 08:35:47;;;;;;;18.10;13.82;;;;;;;-140.66;100.00;55571.53;5079728;28;20028;-75
2023/05/20 08:38:33;;;;;;;19.65;14.32;;;;;;;-140.66;100.00;55571.53;5094140;28;20020;-75
2023/05/20 08:41:21;;;;;;;20.10;12.90;;;;;;;-140.66;100.00;55571.53;5093499;28;20063;-75
2023/05/20 08:44:09;;;;;;;18.70;13.82;;;;;;;-140.66;100.00;55571.53;5094630;28;20024;-75
2023/05/20 08:46:56;;;;;;;18.83;13.05;;;;;;;-140.66;100.00;55571.53;5093218;28;20127;-77
2023/05/20 08:49:42;;;;;;;21.00;12.40;;;;;;;-140.66;100.00;55571.53;5094225;28;20486;-76
2023/05/20 08:52:31;;;;;;;16.55;13.15;;;;;;;-140.66;100.00;55571.53;5093955;28;20057;-77
2023/05/20 08:55:25;;;;;;;16.05;12.30;;;;;;;-140.66;100.00;55571.53;5079087;28;20406;-76
2023/05/20 08:58:11;;;;;;;16.48;11.70;;;;;;;-140.66;100.00;55571.53;5094349;28;20031;-76
2023/05/20 09:00:58;;;;;;;16.77;12.57;;;;;;;-140.66;100.00;55571.53;5079594;28;20032;-76
2023/05/20 09:03:44;;;;;;;14.60;11.23;;;;;;;-140.66;100.00;55571.53;5097913;28;20136;-75
2023/05/20 09:06:44;;;;;;;14.70;11.25;;;;;;;-140.66;100.00;55571.53;5096936;28;20028;-75
2023/05/20 09:09:32;;;;;;;15.30;11.32;;;;;;;-140.66;100.00;55571.53;5098509;28;20032;-75
2023/05/20 09:12:20;;;;;;;19.20;12.10;;;;;;;-140.66;100.00;55571.53;5096492;28;20056;-75
2023/05/20 09:15:06;;;;;;;19.40;12.50;;;;;;;-140.66;100.00;55571.53;5097048;28;20422;-75
2023/05/20 09:17:52;;;;;;;16.08;11.77;;;;;;;-140.66;100.00;55571.53;5097711;28;20437;-75
2023/05/20 09:20:39;;;;;;;19.55;12.80;;;;;;;-140.66;100.00;55571.53;5083151;28;20028;-75
2023/05/20 09:23:29;;;;;;;15.05;11.27;;;;;;;-140.66;100.00;55571.53;5083097;28;20078;-75
2023/05/20 09:26:17;;;;;;;15.52;11.98;;;;;;;-140.66;100.00;55571.53;5083194;28;20426;-76
2023/05/20 09:29:03;;;;;;;17.95;11.43;;;;;;;-140.66;100.00;55571.53;5096484;28;20048;-75
2023/05/20 09:31:50;;;;;;;18.92;12.57;;;;;;;-140.66;100.00;55571.53;5097679;28;20028;-75
2023/05/20 09:34:36;;;;;;;23.83;12.82;;;;;;;-140.66;100.00;55571.53;5082171;28;20042;-75
2023/05/20 09:37:25;;;;;;;15.35;11.77;;;;;;;-140.66;100.00;55571.53;5082242;28;20036;-76
2023/05/20 09:40:12;;;;;;;17.13;11.57;;;;;;;-140.66;100.00;55571.53;5082928;28;20019;-76
2023/05/20 09:43:09;;;;;;;16.25;11.30;;;;;;;-140.66;100.00;55571.53;5097171;28;20039;-76
2023/05/20 09:45:58;;;;;;;14.27;11.75;;;;;;;-140.66;100.00;55571.53;5082736;28;20024;-76
2023/05/20 09:48:44;;;;;;;12.77;10.98;;;;;;;-140.66;100.00;55571.53;5085395;28;20054;-76
2023/05/20 09:51:31;;;;;;;15.40;10.75;;;;;;;-140.66;100.00;55571.53;5083352;28;20059;-75
2023/05/20 09:54:18;;;;;;;18.85;11.38;;;;;;;-140.66;100.00;55571.53;5104551;28;20035;-75
2023/05/20 09:57:06;;;;;;;19.45;11.35;;;;;;;-140.66;100.00;55571.53;5095792;28;20356;-76
2023/05/20 09:59:52;;;;;;;14.25;11.20;;;;;;;-140.66;100.00;55571.53;5087700;28;20032;-76
2023/05/20 10:02:42;;;;;;;15.32;10.40;;;;;;;-140.66;100.00;55571.53;5102648;28;20071;-76
2023/05/20 10:05:59;;;;;;;16.05;10.52;;;;;;;-140.66;100.00;55571.53;5097183;28;20096;-76
2023/05/20 10:09:13;;;;;;;13.38;10.05;;;;;;;-140.66;100.00;55571.53;5082103;28;20078;-77
2023/05/20 10:12:11;;;;;;;12.30;10.05;;;;;;;-140.66;100.00;55571.53;5080997;28;20093;-76
2023/05/20 10:15:15;;;;;;;15.02;10.23;;;;;;;-140.66;100.00;55571.53;5097057;28;20032;-77
2023/05/20 10:18:19;;;;;;;14.55;9.85;;;;;;;-140.66;100.00;55571.53;5087231;28;20360;-76
2023/05/20 10:21:14;;;;;;;12.98;9.73;;;;;;;-140.66;100.00;55571.53;5100633;28;20031;-76
2023/05/20 10:24:10;;;;;;;20.02;10.50;;;;;;;-140.66;100.00;55571.53;5084130;28;20043;-75
2023/05/20 10:26:57;;;;;;;15.25;10.55;;;;;;;-140.66;100.00;55571.53;5095381;28;20118;-75
2023/05/20 10:29:50;;;;;;;15.02;10.13;;;;;;;-140.66;100.00;55571.53;5096204;28;20028;-77
2023/05/20 10:32:38;;;;;;;11.48;9.48;;;;;;;-140.66;100.00;55571.53;5096617;28;20035;-76
2023/05/20 10:35:27;;;;;;;13.75;10.57;;;;;;;-140.66;100.00;55571.53;5082605;28;20040;-77
2023/05/20 10:38:13;;;;;;;13.57;9.95;;;;;;;-140.66;100.00;55571.53;5096006;28;20020;-76
2023/05/20 10:41:11;;;;;;;17.65;12.00;;;;;;;-140.66;100.00;55571.53;5095964;28;20396;-75
2023/05/20 10:44:01;;;;;;;14.43;10.65;;;;;;;-140.66;100.00;55571.53;5095478;28;20490;-76
2023/05/20 10:47:01;;;;;;;11.88;9.70;;;;;;;-140.66;100.00;55571.53;5080853;28;20024;-78
2023/05/20 10:49:47;;;;;;;15.02;9.75;;;;;;;-140.66;100.00;55571.53;5095698;28;20032;-76
2023/05/20 10:52:35;;;;;;;15.00;9.75;;;;;;;-140.66;100.00;55571.53;5096097;28;20077;-76
2023/05/20 10:55:22;;;;;;;12.43;9.43;;;;;;;-140.66;100.00;55571.53;5096137;28;20059;-77
2023/05/20 10:58:09;;;;;;;15.30;9.75;;;;;;;-140.66;100.00;55571.53;5095461;28;20028;-77
2023/05/20 11:00:55;;;;;;;15.70;10.15;;;;;;;-140.66;100.00;55571.53;5095604;28;20106;-75
2023/05/20 11:03:43;;;;;;;11.65;9.52;;;;;;;-140.66;100.00;55571.53;5094340;28;20023;-76
2023/05/20 11:06:29;;;;;;;11.95;9.60;;;;;;;-140.66;100.00;55571.53;5095348;28;20027;-76
2023/05/20 11:09:15;;;;;;;12.77;9.60;;;;;;;-140.66;100.00;55571.53;5096037;28;20036;-77
2023/05/20 11:12:01;;;;;;;19.33;9.32;;;;;;;-140.66;100.00;55571.53;5082668;28;20111;-75
2023/05/20 11:14:48;;;;;;;11.98;9.20;;;;;;;-140.66;100.00;55571.53;5095299;28;20030;-76
2023/05/20 11:17:34;;;;;;;26.30;10.95;;;;;;;-140.66;100.00;55571.53;5095451;28;20035;-76
2023/05/20 11:20:23;;;;;;;10.73;9.20;;;;;;;-140.66;100.00;55571.53;5095444;28;20028;-76
2023/05/20 11:23:13;;;;;;;14.10;9.82;;;;;;;-140.66;100.00;55571.53;5095301;28;20024;-77
2023/05/20 11:26:00;;;;;;;11.85;9.18;;;;;;;-140.66;100.00;55571.53;5080513;28;20114;-76
2023/05/20 11:28:46;;;;;;;15.18;9.85;;;;;;;-140.66;100.00;55571.53;5092818;28;20052;-77
2023/05/20 11:31:32;;;;;;;12.35;9.35;;;;;;;-140.66;100.00;55571.53;5094634;28;20028;-77
2023/05/20 11:34:21;;;;;;;11.95;8.75;;;;;;;-140.66;100.00;55571.53;5095015;28;20028;-77
2023/05/20 11:37:09;;;;;;;14.93;9.73;;;;;;;-140.66;100.00;55571.53;5094855;28;20098;-76
2023/05/20 11:40:08;;;;;;;14.73;8.90;;;;;;;-140.66;100.00;55571.53;5094333;28;20429;-76
2023/05/20 11:42:59;;;;;;;17.05;9.10;;;;;;;-140.66;100.00;55571.53;5093530;28;20027;-76
2023/05/20 11:45:58;;;;;;;17.00;9.38;;;;;;;-140.66;100.00;55571.53;5094629;28;20130;-76
2023/05/20 11:48:53;;;;;;;15.65;8.60;;;;;;;-140.66;100.00;55571.53;5094794;28;20046;-76
2023/05/20 11:51:39;;;;;;;12.60;8.82;;;;;;;-140.66;100.00;55571.53;5094398;28;20521;-76
2023/05/20 11:54:25;;;;;;;13.48;8.98;;;;;;;-140.66;100.00;55571.53;5094674;28;20215;-77
2023/05/20 11:57:11;;;;;;;11.13;8.05;;;;;;;-140.66;100.00;55571.53;5094990;28;20031;-77
2023/05/20 11:59:57;;;;;;;13.73;8.80;;;;;;;-140.66;100.00;55571.53;5094452;28;20034;-77
2023/05/20 12:02:44;;;;;;;23.85;10.18;;;;;;;-140.66;100.00;55571.53;5094180;28;20517;-76
2023/05/20 12:05:30;;;;;;;15.70;10.45;;;;;;;-140.66;100.00;55571.53;5094634;28;20116;-77
2023/05/20 12:08:16;;;;;;;14.50;9.27;;;;;;;-140.66;100.00;55571.53;5093040;28;20024;-77
2023/05/20 12:11:02;;;;;;;14.38;10.48;;;;;;;-140.66;100.00;55571.53;5079305;28;20044;-76
2023/05/20 12:13:47;;;;;;;15.32;9.10;;;;;;;-140.66;100.00;55571.53;5094459;28;20363;-76
2023/05/20 12:16:34;;;;;;;12.27;8.80;;;;;;;-140.66;100.00;55571.53;5094287;28;20016;-76
2023/05/20 12:19:20;;;;;;;12.60;8.98;;;;;;;-140.66;100.00;55571.53;5093948;28;20440;-76
2023/05/20 12:22:05;;;;;;;10.82;9.07;;;;;;;-140.66;100.00;55571.53;5094110;28;20035;-76